Skip Navigation Links Skip Navigation Links

Current Weather

San Francisco International, San Francisco

For information only: do not use for flight planning or navigation.
Latest weather
Observation time Monday, October 16, 2017 10:56 PM PDT
Local time Monday, October 16, 2017 11:04 PM PDT
Flight conditions Visual Meteorological Conditions
Winds
Wind speed calm
Visibility 10 mi.
Sky condition
Ceiling unlimited
Sky clear
Temperature 66°F
Dewpoint 54°F
Altimeter 30.06 in.Hg
Pressure change last 3 hours-0.03 in.Hg
Pressure rising more quickly
Derived measurements
Relative humidity 65%
Density altitude 512 ft.
Sea-level pressure 30.06 in.Hg
Climate data
Temperature minimum, last 6 hours 66°F
Temperature maximum, last 6 hours 83°F
Remarks
Automated weather observing station with precipitation discriminator.
METAR KSFO 170556Z 00000KT 10SM CLR 19/12 A3006 RMK AO2 SLP179 T01890122 10283 20189 53010

Settings

Location code

InnerDrive.Weather 4.0.6144.1 Release CLR 4.0.30319.36366
Copyright ©2015 Inner Drive Technology. All rights reserved. Portions Copyright ©1986-2015 David Braverman.

Find weather

Site navigation


Skip Navigation Links

Place info

Page info

PayPal - The safer, easier way to pay online!

Return home.

Copyright ©2017 Inner Drive Technology. Purveyors of fine, hand-crafted computer software. Page printed 2017-10-17T06:04:50 UTC.